createdAt,value
2018-12-20T00:00:14.795Z,21.20
2018-12-20T00:02:43.541Z,23.57
2018-12-20T00:05:12.300Z,20.33
2018-12-20T00:07:41.159Z,21.83
2018-12-20T00:10:10.198Z,24.10
2018-12-20T00:12:38.935Z,22.67
2018-12-20T00:15:07.679Z,22.70
2018-12-20T00:17:41.988Z,23.47
2018-12-20T00:20:10.903Z,22.40
2018-12-20T00:22:39.703Z,22.30
2018-12-20T00:25:08.761Z,22.33
2018-12-20T00:27:37.470Z,22.30
2018-12-20T00:30:06.598Z,22.27
2018-12-20T00:32:35.381Z,22.70
2018-12-20T00:35:04.147Z,20.27
2018-12-20T00:37:32.855Z,24.00
2018-12-20T00:40:06.391Z,22.03
2018-12-20T00:42:32.352Z,20.13
2018-12-20T00:45:01.207Z,23.93
2018-12-20T00:47:29.905Z,21.80
2018-12-20T00:49:58.770Z,22.30
2018-12-20T00:52:27.477Z,21.03
2018-12-20T00:54:56.068Z,20.53
2018-12-20T00:57:25.026Z,21.67
2018-12-20T00:59:53.974Z,21.90
2018-12-20T01:02:22.723Z,20.53
2018-12-20T01:04:51.313Z,20.97
2018-12-20T01:07:20.056Z,19.90
2018-12-20T01:09:48.819Z,19.53
2018-12-20T01:12:17.576Z,21.43
2018-12-20T01:14:46.238Z,21.03
2018-12-20T01:17:14.839Z,21.03
2018-12-20T01:19:43.518Z,21.53
2018-12-20T01:22:12.226Z,20.87
2018-12-20T01:24:40.951Z,21.17
2018-12-20T01:27:09.768Z,21.30
2018-12-20T01:29:38.430Z,22.20
2018-12-20T01:32:07.022Z,19.67
2018-12-20T01:34:35.591Z,22.03
2018-12-20T01:37:04.539Z,21.93
2018-12-20T01:39:33.296Z,20.63
2018-12-20T01:42:02.100Z,21.60
2018-12-20T01:44:30.747Z,21.97
2018-12-20T01:46:59.513Z,19.70
2018-12-20T01:49:28.152Z,21.03
2018-12-20T01:51:56.845Z,19.63
2018-12-20T01:54:47.838Z,21.93
2018-12-20T01:57:16.562Z,19.33
2018-12-20T01:59:45.165Z,21.57
2018-12-20T02:02:13.996Z,19.17
2018-12-20T02:04:42.674Z,17.03
2018-12-20T02:07:11.302Z,19.87
2018-12-20T02:09:39.960Z,19.10
2018-12-20T02:12:08.761Z,19.83
2018-12-20T02:14:37.358Z,20.57
2018-12-20T02:17:05.940Z,20.07
2018-12-20T02:19:34.593Z,17.27
2018-12-20T02:22:03.287Z,17.97
2018-12-20T02:24:32.079Z,18.70
2018-12-20T02:27:00.849Z,18.43
2018-12-20T02:29:33.293Z,21.27
2018-12-20T02:32:02.029Z,19.63
2018-12-20T02:34:30.605Z,19.63
2018-12-20T02:36:59.170Z,19.13
2018-12-20T02:39:27.772Z,20.27
2018-12-20T02:41:56.361Z,18.23
2018-12-20T02:44:25.458Z,22.53
2018-12-20T02:46:54.308Z,19.37
2018-12-20T02:49:23.031Z,17.97
2018-12-20T02:51:51.722Z,19.40
2018-12-20T02:54:20.665Z,20.73
2018-12-20T02:56:49.399Z,17.87
2018-12-20T02:59:18.143Z,18.40
2018-12-20T03:01:46.786Z,17.13
2018-12-20T03:04:15.408Z,18.20
2018-12-20T03:06:44.076Z,18.30
2018-12-20T03:09:12.680Z,18.27
2018-12-20T03:11:41.275Z,18.33
2018-12-20T03:14:09.992Z,18.83
2018-12-20T03:16:38.701Z,19.40
2018-12-20T03:19:07.505Z,19.53
2018-12-20T03:21:36.192Z,18.07
2018-12-20T03:24:05.096Z,19.83
2018-12-20T03:26:33.819Z,19.50
2018-12-20T03:29:02.533Z,18.63
2018-12-20T03:31:31.284Z,19.43
2018-12-20T03:34:00.132Z,17.20
2018-12-20T03:36:28.886Z,17.77
2018-12-20T03:38:57.782Z,18.03
2018-12-20T03:41:26.537Z,17.33
2018-12-20T03:43:55.274Z,18.10
2018-12-20T03:46:24.003Z,19.00
2018-12-20T03:48:52.687Z,19.60
2018-12-20T03:51:21.441Z,19.87
2018-12-20T03:53:50.187Z,18.80
2018-12-20T03:56:19.067Z,17.93
2018-12-20T03:58:47.995Z,17.80
2018-12-20T04:01:16.725Z,19.30
2018-12-20T04:03:45.378Z,18.63
2018-12-20T04:06:14.268Z,20.80
2018-12-20T04:08:43.194Z,18.67
2018-12-20T04:11:12.033Z,19.93
2018-12-20T04:13:41.579Z,19.57
2018-12-20T04:16:10.200Z,19.40
2018-12-20T04:18:38.785Z,20.10
2018-12-20T04:21:07.375Z,18.47
2018-12-20T04:23:38.145Z,18.77
2018-12-20T04:26:06.795Z,18.97
2018-12-20T04:28:35.602Z,19.70
2018-12-20T04:31:04.327Z,19.07
2018-12-20T04:33:32.996Z,18.13
2018-12-20T04:36:01.927Z,20.73
2018-12-20T04:38:30.589Z,19.33
2018-12-20T04:40:59.454Z,20.33
2018-12-20T04:43:28.167Z,18.20
2018-12-20T04:45:56.789Z,19.53
2018-12-20T04:48:25.779Z,19.00
2018-12-20T04:50:54.439Z,19.00
2018-12-20T04:53:23.052Z,18.97
2018-12-20T04:55:51.618Z,19.50
2018-12-20T04:58:20.333Z,17.63
2018-12-20T05:00:49.019Z,18.70
2018-12-20T05:03:17.627Z,19.07
2018-12-20T05:05:46.337Z,18.83
2018-12-20T05:08:15.245Z,20.37
2018-12-20T05:10:44.291Z,21.10
2018-12-20T05:13:13.144Z,19.67
2018-12-20T05:15:41.886Z,19.87
2018-12-20T05:18:10.771Z,19.53
2018-12-20T05:20:39.860Z,20.20
2018-12-20T05:23:08.558Z,19.37
2018-12-20T05:25:37.275Z,19.33
2018-12-20T05:28:06.035Z,16.40
2018-12-20T05:30:34.651Z,18.27
2018-12-20T05:33:03.278Z,17.50
2018-12-20T05:35:31.877Z,17.63
2018-12-20T05:38:00.511Z,20.03
2018-12-20T05:40:29.125Z,18.27
2018-12-20T05:42:57.737Z,18.57
2018-12-20T05:45:26.481Z,17.90
2018-12-20T05:47:55.219Z,17.63
2018-12-20T05:50:23.962Z,17.27
2018-12-20T05:52:52.628Z,17.23
2018-12-20T05:55:25.571Z,18.17
2018-12-20T05:57:54.270Z,20.27
2018-12-20T06:00:22.904Z,17.33
2018-12-20T06:02:51.679Z,20.47
2018-12-20T06:05:20.621Z,19.13
2018-12-20T06:07:49.355Z,18.63
2018-12-20T06:10:17.971Z,19.80
2018-12-20T06:12:47.071Z,17.93
2018-12-20T06:15:15.791Z,19.30
2018-12-20T06:17:44.417Z,18.13
2018-12-20T06:20:13.242Z,17.80
2018-12-20T06:22:42.028Z,18.33
2018-12-20T06:25:10.762Z,19.37
2018-12-20T06:27:39.510Z,19.10
2018-12-20T06:30:08.515Z,18.37
2018-12-20T06:32:37.129Z,20.10
2018-12-20T06:35:05.800Z,19.97
2018-12-20T06:37:34.463Z,18.70
2018-12-20T06:40:03.245Z,18.70
2018-12-20T06:42:31.847Z,18.00
2018-12-20T06:45:00.417Z,17.13
2018-12-20T06:47:29.007Z,18.13
2018-12-20T06:49:57.629Z,18.63
2018-12-20T06:52:26.209Z,19.43
2018-12-20T06:54:54.819Z,18.93
2018-12-20T06:57:23.495Z,17.03
2018-12-20T06:59:52.100Z,18.17
2018-12-20T07:02:20.655Z,16.30
2018-12-20T07:04:49.293Z,19.27
2018-12-20T07:07:17.873Z,18.73
2018-12-20T07:09:46.443Z,16.33
2018-12-20T07:12:15.077Z,18.27
2018-12-20T07:14:43.692Z,18.00
2018-12-20T07:17:12.275Z,18.50
2018-12-20T07:19:40.885Z,16.73
2018-12-20T07:22:09.535Z,18.63
2018-12-20T07:24:38.790Z,19.57
2018-12-20T07:27:07.392Z,19.13
2018-12-20T07:29:35.977Z,19.20
2018-12-20T07:32:04.692Z,18.73
2018-12-20T07:34:47.822Z,19.53
2018-12-20T07:37:12.142Z,19.73
2018-12-20T07:39:40.736Z,21.93
2018-12-20T07:42:09.351Z,21.77
2018-12-20T07:44:37.962Z,20.87
2018-12-20T07:47:06.559Z,22.23
2018-12-20T07:49:35.151Z,22.93
2018-12-20T07:52:03.733Z,21.80
2018-12-20T07:54:32.427Z,22.93
2018-12-20T07:57:01.459Z,22.37
2018-12-20T07:59:30.038Z,23.73
2018-12-20T08:02:06.017Z,24.20
2018-12-20T08:04:34.592Z,22.17
2018-12-20T08:07:03.204Z,21.87
2018-12-20T08:09:31.943Z,23.53
2018-12-20T08:12:00.528Z,24.30
2018-12-20T08:14:29.104Z,22.03
2018-12-20T08:16:57.876Z,23.33
2018-12-20T08:19:26.445Z,21.97
2018-12-20T08:21:55.036Z,25.03
2018-12-20T08:24:23.668Z,24.73
2018-12-20T08:26:52.230Z,25.00
2018-12-20T08:29:20.777Z,24.07
2018-12-20T08:31:50.378Z,23.07
2018-12-20T08:34:18.949Z,25.57
2018-12-20T08:36:47.526Z,24.53
2018-12-20T08:39:16.224Z,22.30
2018-12-20T08:41:44.793Z,22.33
2018-12-20T08:44:13.851Z,23.93
2018-12-20T08:46:44.606Z,23.70
2018-12-20T08:49:13.235Z,23.77
2018-12-20T08:51:48.853Z,22.60
2018-12-20T08:54:12.469Z,23.50
2018-12-20T08:56:42.065Z,23.83
2018-12-20T08:59:10.761Z,22.27
2018-12-20T09:01:39.358Z,25.07
2018-12-20T09:04:07.956Z,22.37
2018-12-20T09:06:36.580Z,23.60
2018-12-20T09:09:07.150Z,22.50
2018-12-20T09:11:35.731Z,21.80
2018-12-20T09:14:04.382Z,22.17
2018-12-20T09:16:40.852Z,23.77
2018-12-20T09:19:09.540Z,23.20
2018-12-20T09:21:38.153Z,22.50
2018-12-20T09:24:06.840Z,22.23
2018-12-20T09:26:35.433Z,22.27
2018-12-20T09:29:04.070Z,22.93
2018-12-20T09:31:32.680Z,22.97
2018-12-20T09:34:01.273Z,22.03
2018-12-20T09:36:29.912Z,21.63
2018-12-20T09:38:58.676Z,23.83
2018-12-20T09:41:27.374Z,23.10
2018-12-20T09:43:55.973Z,21.57
2018-12-20T09:46:24.602Z,23.40
2018-12-20T09:48:53.139Z,21.83
2018-12-20T09:51:21.712Z,22.10
2018-12-20T09:53:51.401Z,21.13
2018-12-20T09:56:20.020Z,23.30
2018-12-20T09:58:48.714Z,23.77
2018-12-20T10:01:17.333Z,22.53
2018-12-20T10:03:45.912Z,22.60
2018-12-20T10:06:14.574Z,21.47
2018-12-20T10:08:43.342Z,21.60
2018-12-20T10:11:11.907Z,21.87
2018-12-20T10:13:40.515Z,23.33
2018-12-20T10:16:09.240Z,24.00
2018-12-20T10:18:37.811Z,23.00
2018-12-20T10:21:06.567Z,22.33
2018-12-20T10:23:35.168Z,22.77
2018-12-20T10:26:04.047Z,23.30
2018-12-20T10:28:32.781Z,23.80
2018-12-20T10:31:08.407Z,24.47
2018-12-20T10:33:37.005Z,24.13
2018-12-20T10:36:05.598Z,24.47
2018-12-20T10:38:34.260Z,23.33
2018-12-20T10:41:02.857Z,25.90
2018-12-20T10:43:31.481Z,23.53
2018-12-20T10:46:00.086Z,26.43
2018-12-20T10:48:28.699Z,27.17
2018-12-20T10:50:57.283Z,25.03
2018-12-20T10:53:25.879Z,23.27
2018-12-20T10:55:54.550Z,29.80
2018-12-20T10:58:33.473Z,25.10
2018-12-20T11:01:07.455Z,23.80
2018-12-20T11:03:41.373Z,23.47
2018-12-20T11:06:15.318Z,23.60
2018-12-20T11:08:49.190Z,24.03
2018-12-20T11:11:20.928Z,24.27
2018-12-20T11:13:50.301Z,22.33
2018-12-20T11:16:18.945Z,24.47
2018-12-20T11:18:47.542Z,25.23
2018-12-20T11:21:16.212Z,23.57
2018-12-20T11:23:44.875Z,23.10
2018-12-20T11:26:13.487Z,23.77
2018-12-20T11:28:42.089Z,24.30
2018-12-20T11:31:11.072Z,22.90
2018-12-20T11:33:39.875Z,24.07
2018-12-20T11:36:08.616Z,24.43
2018-12-20T11:38:37.226Z,21.93
2018-12-20T11:41:05.810Z,23.13
2018-12-20T11:43:34.444Z,22.60
2018-12-20T11:46:03.058Z,23.57
2018-12-20T11:48:31.657Z,22.80
2018-12-20T11:51:00.306Z,22.10
2018-12-20T11:53:28.880Z,23.23
2018-12-20T11:55:57.514Z,23.10
2018-12-20T11:58:26.158Z,23.00
2018-12-20T12:00:54.737Z,22.70
2018-12-20T12:03:23.381Z,22.33
2018-12-20T12:05:52.128Z,24.10
2018-12-20T12:08:20.703Z,22.10
2018-12-20T12:10:49.291Z,22.67
2018-12-20T12:13:17.910Z,21.37
2018-12-20T12:15:46.505Z,24.40
2018-12-20T12:18:15.123Z,23.37
2018-12-20T12:20:43.799Z,24.43
2018-12-20T12:23:12.502Z,23.03
2018-12-20T12:25:41.121Z,21.33
2018-12-20T12:28:09.813Z,23.23
2018-12-20T12:30:38.434Z,22.97
2018-12-20T12:33:07.161Z,23.83
2018-12-20T12:35:35.855Z,22.37
2018-12-20T12:38:04.618Z,23.97
2018-12-20T12:40:33.246Z,26.80
2018-12-20T12:43:01.905Z,25.50
2018-12-20T12:45:30.779Z,26.73
2018-12-20T12:48:03.659Z,26.17
2018-12-20T12:50:31.593Z,25.90
2018-12-20T12:53:00.230Z,24.27
2018-12-20T12:55:28.964Z,26.70
2018-12-20T12:58:04.616Z,26.43
2018-12-20T13:00:28.261Z,27.97
2018-12-20T13:02:56.908Z,27.43
2018-12-20T13:05:25.591Z,26.47
2018-12-20T13:07:59.413Z,26.23
2018-12-20T13:10:28.008Z,26.73
2018-12-20T13:12:56.586Z,26.97
2018-12-20T13:15:26.029Z,28.10
2018-12-20T13:17:55.343Z,28.37
2018-12-20T13:20:23.958Z,29.63
2018-12-20T13:22:52.587Z,27.77
2018-12-20T13:25:21.299Z,27.73
2018-12-20T13:27:50.021Z,29.47
2018-12-20T13:30:18.703Z,28.90
2018-12-20T13:32:51.260Z,30.07
2018-12-20T13:35:19.886Z,28.87
2018-12-20T13:37:48.489Z,28.93
2018-12-20T13:40:17.103Z,28.97
2018-12-20T13:42:47.749Z,28.43
2018-12-20T13:45:16.372Z,30.83
2018-12-20T13:47:45.008Z,30.30
2018-12-20T13:50:18.756Z,29.97
2018-12-20T13:52:47.368Z,31.57
2018-12-20T13:55:15.964Z,31.67
2018-12-20T13:57:44.600Z,29.13
2018-12-20T14:00:15.534Z,27.53
2018-12-20T14:02:44.727Z,32.10
2018-12-20T14:05:13.388Z,32.53
2018-12-20T14:07:42.062Z,29.83
2018-12-20T14:10:18.386Z,32.67
2018-12-20T14:12:46.970Z,29.03
2018-12-20T14:15:15.589Z,32.03
2018-12-20T14:17:44.263Z,29.53
2018-12-20T14:20:12.932Z,28.10
2018-12-20T14:22:41.547Z,30.27
2018-12-20T14:25:10.217Z,30.87
2018-12-20T14:27:39.014Z,29.83
2018-12-20T14:30:10.163Z,30.10
2018-12-20T14:32:38.838Z,32.23
2018-12-20T14:35:07.848Z,28.17
2018-12-20T14:37:43.657Z,31.20
2018-12-20T14:40:12.500Z,32.00
2018-12-20T14:42:41.111Z,28.17
2018-12-20T14:45:09.901Z,31.33
2018-12-20T14:47:38.675Z,30.27
2018-12-20T14:50:17.761Z,30.63
2018-12-20T14:52:46.966Z,31.43
2018-12-20T14:55:19.451Z,29.30
2018-12-20T14:57:48.325Z,33.00
2018-12-20T15:00:17.813Z,32.70
2018-12-20T15:02:46.674Z,28.13
2018-12-20T15:05:30.669Z,31.13
2018-12-20T15:07:59.479Z,30.47
2018-12-20T15:10:30.304Z,29.13
2018-12-20T15:12:59.344Z,30.77
2018-12-20T15:15:28.314Z,28.63
2018-12-20T15:17:58.043Z,31.37
2018-12-20T15:20:26.921Z,30.50
2018-12-20T15:22:56.251Z,30.60
2018-12-20T15:25:24.962Z,29.57
2018-12-20T15:27:54.561Z,31.97
2018-12-20T15:30:23.473Z,31.30
2018-12-20T15:32:52.424Z,33.23
2018-12-20T15:35:25.187Z,32.30
2018-12-20T15:37:54.655Z,33.33
2018-12-20T15:40:23.405Z,29.57
2018-12-20T15:42:52.835Z,29.80
2018-12-20T15:45:27.262Z,28.80
2018-12-20T15:47:55.993Z,28.20
2018-12-20T15:50:40.150Z,32.60
2018-12-20T15:53:09.341Z,31.00
2018-12-20T15:55:39.685Z,30.70
2018-12-20T15:58:08.578Z,29.87
2018-12-20T16:00:37.297Z,28.13
2018-12-20T16:03:06.029Z,29.60
2018-12-20T16:05:35.396Z,28.70
2018-12-20T16:08:07.561Z,28.40
2018-12-20T16:10:37.386Z,28.33
2018-12-20T16:13:06.265Z,29.63
2018-12-20T16:15:35.038Z,27.07
2018-12-20T16:18:04.212Z,31.17
2018-12-20T16:20:32.974Z,29.67
2018-12-20T16:23:01.828Z,28.60
2018-12-20T16:25:30.883Z,29.13
2018-12-20T16:28:00.362Z,26.83
2018-12-20T16:30:29.121Z,29.37
2018-12-20T16:32:57.841Z,29.23
2018-12-20T16:35:26.601Z,28.60
2018-12-20T16:37:55.272Z,24.73
2018-12-20T16:40:23.971Z,25.33
2018-12-20T16:42:52.637Z,26.57
2018-12-20T16:45:21.970Z,25.83
2018-12-20T16:47:50.586Z,24.57
2018-12-20T16:50:19.319Z,24.93
2018-12-20T16:52:47.995Z,26.50
2018-12-20T16:55:17.388Z,25.37
2018-12-20T16:57:46.056Z,27.27
2018-12-20T17:00:14.896Z,26.40
2018-12-20T17:02:51.642Z,24.90
2018-12-20T17:05:20.341Z,27.47
2018-12-20T17:07:49.113Z,27.63
2018-12-20T17:10:18.046Z,28.50
2018-12-20T17:12:46.875Z,27.50
2018-12-20T17:15:17.658Z,27.43
2018-12-20T17:17:46.340Z,26.53
2018-12-20T17:20:15.821Z,25.90
2018-12-20T17:22:44.562Z,24.67
2018-12-20T17:25:14.188Z,25.57
2018-12-20T17:27:44.207Z,28.00
2018-12-20T17:30:13.077Z,27.00
2018-12-20T17:32:42.117Z,28.60
2018-12-20T17:35:10.878Z,28.30
2018-12-20T17:37:39.460Z,26.20
2018-12-20T17:40:08.782Z,26.80
2018-12-20T17:42:37.448Z,27.97
2018-12-20T17:45:07.533Z,28.03
2018-12-20T17:47:36.518Z,25.80
2018-12-20T17:50:06.588Z,26.70
2018-12-20T17:52:37.380Z,28.83
2018-12-20T17:55:06.267Z,28.23
2018-12-20T17:57:35.076Z,26.80
2018-12-20T18:00:04.381Z,28.67
2018-12-20T18:02:33.278Z,26.97
2018-12-20T18:05:06.971Z,27.60
2018-12-20T18:07:32.635Z,27.17
2018-12-20T18:10:01.280Z,27.30
2018-12-20T18:12:30.156Z,27.43
2018-12-20T18:14:58.873Z,28.23
2018-12-20T18:17:31.548Z,28.20
2018-12-20T18:20:00.299Z,28.27
2018-12-20T18:22:29.077Z,27.27
2018-12-20T18:24:58.683Z,29.00
2018-12-20T18:27:35.448Z,28.03
2018-12-20T18:30:05.969Z,30.80
2018-12-20T18:32:34.714Z,29.37
2018-12-20T18:35:03.470Z,28.03
2018-12-20T18:37:32.279Z,30.20
2018-12-20T18:40:01.764Z,31.90
2018-12-20T18:42:30.997Z,28.03
2018-12-20T18:45:00.193Z,30.63
2018-12-20T18:47:28.889Z,30.67
2018-12-20T18:50:01.702Z,30.43
2018-12-20T18:52:30.437Z,33.27
2018-12-20T18:54:59.183Z,31.27
2018-12-20T18:57:28.430Z,32.07
2018-12-20T18:59:57.049Z,30.50
2018-12-20T19:02:25.806Z,32.70
2018-12-20T19:04:54.556Z,30.90
2018-12-20T19:07:23.325Z,33.60
2018-12-20T19:09:54.027Z,32.33
2018-12-20T19:12:22.661Z,32.20
2018-12-20T19:14:52.091Z,32.10
2018-12-20T19:17:23.957Z,32.77
2018-12-20T19:19:56.364Z,30.57
2018-12-20T19:22:23.398Z,31.47
2018-12-20T19:24:52.271Z,29.20
2018-12-20T19:27:21.066Z,28.70
2018-12-20T19:29:50.446Z,34.33
2018-12-20T19:32:19.265Z,32.33
2018-12-20T19:34:48.510Z,31.63
2018-12-20T19:37:17.828Z,33.23
2018-12-20T19:39:48.872Z,31.40
2018-12-20T19:42:17.559Z,31.97
2018-12-20T19:44:46.360Z,32.63
2018-12-20T19:47:15.132Z,31.90
2018-12-20T19:49:44.978Z,29.33
2018-12-20T19:52:13.733Z,32.90
2018-12-20T19:54:47.958Z,35.17
2018-12-20T19:57:13.106Z,32.57
2018-12-20T19:59:41.844Z,32.60
2018-12-20T20:02:10.517Z,33.20
2018-12-20T20:04:40.149Z,33.87
2018-12-20T20:07:09.363Z,31.70
2018-12-20T20:09:38.304Z,35.60
2018-12-20T20:12:07.149Z,32.57
2018-12-20T20:14:35.765Z,35.50
2018-12-20T20:17:04.448Z,34.57
2018-12-20T20:19:37.772Z,36.07
2018-12-20T20:22:06.519Z,36.93
2018-12-20T20:24:38.784Z,36.30
2018-12-20T20:27:08.293Z,33.43
2018-12-20T20:29:36.957Z,32.33
2018-12-20T20:32:05.673Z,35.40
2018-12-20T20:34:34.337Z,35.07
2018-12-20T20:37:03.839Z,32.03
2018-12-20T20:39:42.944Z,32.50
2018-12-20T20:42:12.024Z,34.20
2018-12-20T20:44:41.353Z,32.93
2018-12-20T20:47:10.701Z,34.13
2018-12-20T20:49:46.640Z,34.43
2018-12-20T20:52:15.520Z,37.17
2018-12-20T20:54:44.189Z,35.13
2018-12-20T20:57:12.812Z,38.37
2018-12-20T20:59:41.588Z,36.60
2018-12-20T21:02:10.440Z,36.37
2018-12-20T21:04:39.144Z,35.63
2018-12-20T21:07:07.928Z,35.47
2018-12-20T21:09:36.696Z,35.40
2018-12-20T21:12:05.748Z,35.07
2018-12-20T21:14:34.549Z,33.70
2018-12-20T21:17:03.301Z,37.00
2018-12-20T21:19:32.063Z,36.63
2018-12-20T21:22:00.796Z,37.50
2018-12-20T21:24:29.588Z,38.07
2018-12-20T21:26:58.812Z,34.43
2018-12-20T21:29:27.524Z,37.47
2018-12-20T21:31:56.292Z,39.70
2018-12-20T21:34:27.082Z,36.00
2018-12-20T21:36:55.863Z,34.40
2018-12-20T21:39:24.616Z,36.50
2018-12-20T21:41:53.381Z,35.80
2018-12-20T21:44:22.151Z,36.50
2018-12-20T21:46:50.910Z,36.77
2018-12-20T21:49:20.935Z,37.20
2018-12-20T21:51:49.693Z,36.23
2018-12-20T21:54:18.343Z,36.33
2018-12-20T21:56:47.215Z,35.47
2018-12-20T21:59:16.062Z,33.83
2018-12-20T22:01:45.559Z,33.93
2018-12-20T22:04:14.840Z,38.30
2018-12-20T22:06:43.867Z,36.70
2018-12-20T22:09:13.278Z,39.77
2018-12-20T22:11:42.231Z,42.13
2018-12-20T22:14:19.291Z,39.00
2018-12-20T22:16:48.045Z,39.10
2018-12-20T22:19:16.774Z,39.47
2018-12-20T22:21:45.862Z,39.93
2018-12-20T22:24:15.286Z,39.57
2018-12-20T22:26:44.218Z,41.90
2018-12-20T22:29:14.125Z,42.90
2018-12-20T22:31:42.817Z,56.40
2018-12-20T22:34:12.070Z,46.23
2018-12-20T22:36:40.873Z,43.23
2018-12-20T22:39:10.597Z,44.83
2018-12-20T22:41:39.298Z,41.30
2018-12-20T22:44:08.518Z,45.47
2018-12-20T22:46:37.322Z,40.50
2018-12-20T22:49:06.331Z,41.93
2018-12-20T22:51:35.021Z,44.80
2018-12-20T22:54:03.771Z,43.57
2018-12-20T22:56:32.516Z,41.97
2018-12-20T22:59:01.268Z,40.30
2018-12-20T23:01:31.648Z,41.77
2018-12-20T23:04:00.311Z,44.10
2018-12-20T23:06:29.015Z,46.30
2018-12-20T23:08:57.877Z,44.40
2018-12-20T23:11:26.506Z,41.30
2018-12-20T23:13:55.799Z,46.60
2018-12-20T23:16:24.491Z,43.20
2018-12-20T23:18:53.131Z,48.27
2018-12-20T23:21:22.356Z,81.53
2018-12-20T23:23:51.210Z,41.20
2018-12-20T23:26:19.965Z,44.17
2018-12-20T23:28:49.232Z,44.73
2018-12-20T23:31:18.082Z,42.70
2018-12-20T23:33:47.521Z,42.83
2018-12-20T23:36:16.994Z,42.37
2018-12-20T23:38:46.020Z,42.53
2018-12-20T23:41:15.358Z,42.53
2018-12-20T23:43:44.248Z,40.37
2018-12-20T23:46:13.714Z,42.53
2018-12-20T23:48:43.178Z,39.67
2018-12-20T23:51:13.843Z,40.00
2018-12-20T23:53:42.818Z,41.13
2018-12-20T23:56:11.575Z,40.60
2018-12-20T23:58:40.198Z,39.03
